sensor_id;sensor_type;location;lat;lon;timestamp;temperature;humidity
52656;SHT85;35474;51.032;6.998;2022-12-13T00:01:13;-2.96;88.92
52656;SHT85;35474;51.032;6.998;2022-12-13T00:03:40;-2.86;89.00
52656;SHT85;35474;51.032;6.998;2022-12-13T00:06:08;-3.00;89.03
52656;SHT85;35474;51.032;6.998;2022-12-13T00:08:35;-2.95;89.11
52656;SHT85;35474;51.032;6.998;2022-12-13T00:11:03;-3.03;89.08
52656;SHT85;35474;51.032;6.998;2022-12-13T00:13:32;-3.12;89.06
52656;SHT85;35474;51.032;6.998;2022-12-13T00:16:00;-3.15;89.04
52656;SHT85;35474;51.032;6.998;2022-12-13T00:18:29;-3.16;89.10
52656;SHT85;35474;51.032;6.998;2022-12-13T00:20:56;-3.12;89.27
52656;SHT85;35474;51.032;6.998;2022-12-13T00:23:23;-3.13;88.93
52656;SHT85;35474;51.032;6.998;2022-12-13T00:25:50;-3.15;88.83
52656;SHT85;35474;51.032;6.998;2022-12-13T00:28:16;-3.23;89.00
52656;SHT85;35474;51.032;6.998;2022-12-13T00:30:45;-3.24;88.99
52656;SHT85;35474;51.032;6.998;2022-12-13T00:33:11;-3.10;89.08
52656;SHT85;35474;51.032;6.998;2022-12-13T00:35:38;-3.21;89.01
52656;SHT85;35474;51.032;6.998;2022-12-13T00:38:06;-3.24;88.91
52656;SHT85;35474;51.032;6.998;2022-12-13T00:40:34;-3.32;89.05
52656;SHT85;35474;51.032;6.998;2022-12-13T00:43:01;-3.21;89.01
52656;SHT85;35474;51.032;6.998;2022-12-13T00:45:27;-3.24;88.85
52656;SHT85;35474;51.032;6.998;2022-12-13T00:47:54;-3.23;88.98
52656;SHT85;35474;51.032;6.998;2022-12-13T00:50:20;-3.26;88.95
52656;SHT85;35474;51.032;6.998;2022-12-13T00:52:47;-3.26;89.06
52656;SHT85;35474;51.032;6.998;2022-12-13T00:55:13;-3.12;88.89
52656;SHT85;35474;51.032;6.998;2022-12-13T01:00:35;-3.12;89.39
52656;SHT85;35474;51.032;6.998;2022-12-13T01:03:01;-2.97;89.33
52656;SHT85;35474;51.032;6.998;2022-12-13T01:05:46;-3.02;88.99
52656;SHT85;35474;51.032;6.998;2022-12-13T01:08:33;-3.21;88.89
52656;SHT85;35474;51.032;6.998;2022-12-13T01:10:59;-3.16;89.03
52656;SHT85;35474;51.032;6.998;2022-12-13T01:13:25;-3.29;88.91
52656;SHT85;35474;51.032;6.998;2022-12-13T01:15:52;-3.30;88.87
52656;SHT85;35474;51.032;6.998;2022-12-13T01:18:18;-3.20;89.35
52656;SHT85;35474;51.032;6.998;2022-12-13T01:21:01;-3.21;89.25
52656;SHT85;35474;51.032;6.998;2022-12-13T01:23:31;-3.34;89.28
52656;SHT85;35474;51.032;6.998;2022-12-13T01:26:02;-3.32;89.34
52656;SHT85;35474;51.032;6.998;2022-12-13T01:28:32;-3.47;89.43
52656;SHT85;35474;51.032;6.998;2022-12-13T01:31:00;-3.34;89.43
52656;SHT85;35474;51.032;6.998;2022-12-13T01:33:29;-3.47;89.34
52656;SHT85;35474;51.032;6.998;2022-12-13T01:35:59;-3.53;89.24
52656;SHT85;35474;51.032;6.998;2022-12-13T01:38:27;-3.47;89.17
52656;SHT85;35474;51.032;6.998;2022-12-13T01:40:54;-3.54;88.99
52656;SHT85;35474;51.032;6.998;2022-12-13T01:43:26;-3.53;89.35
52656;SHT85;35474;51.032;6.998;2022-12-13T01:45:55;-3.57;89.57
52656;SHT85;35474;51.032;6.998;2022-12-13T01:48:26;-3.65;89.52
52656;SHT85;35474;51.032;6.998;2022-12-13T01:50:57;-3.67;89.49
52656;SHT85;35474;51.032;6.998;2022-12-13T01:53:28;-3.75;89.30
52656;SHT85;35474;51.032;6.998;2022-12-13T01:56:02;-3.78;89.12
52656;SHT85;35474;51.032;6.998;2022-12-13T01:58:34;-3.88;89.26
52656;SHT85;35474;51.032;6.998;2022-12-13T02:01:02;-3.78;89.43
52656;SHT85;35474;51.032;6.998;2022-12-13T02:03:29;-3.91;89.50
52656;SHT85;35474;51.032;6.998;2022-12-13T02:06:05;-3.85;89.36
52656;SHT85;35474;51.032;6.998;2022-12-13T02:08:35;-3.91;89.43
52656;SHT85;35474;51.032;6.998;2022-12-13T02:11:05;-3.95;89.49
52656;SHT85;35474;51.032;6.998;2022-12-13T02:13:32;-4.02;89.41
52656;SHT85;35474;51.032;6.998;2022-12-13T02:18:56;-4.09;89.46
52656;SHT85;35474;51.032;6.998;2022-12-13T02:21:49;-4.17;89.39
52656;SHT85;35474;51.032;6.998;2022-12-13T02:28:05;-4.29;89.58
52656;SHT85;35474;51.032;6.998;2022-12-13T02:34:26;-4.12;90.24
52656;SHT85;35474;51.032;6.998;2022-12-13T02:37:01;-4.16;90.27
52656;SHT85;35474;51.032;6.998;2022-12-13T02:39:46;-4.12;90.40
52656;SHT85;35474;51.032;6.998;2022-12-13T02:42:17;-4.12;90.35
52656;SHT85;35474;51.032;6.998;2022-12-13T02:44:50;-4.09;90.35
52656;SHT85;35474;51.032;6.998;2022-12-13T02:47:26;-4.20;90.12
52656;SHT85;35474;51.032;6.998;2022-12-13T02:49:57;-4.15;90.19
52656;SHT85;35474;51.032;6.998;2022-12-13T02:52:28;-4.19;90.17
52656;SHT85;35474;51.032;6.998;2022-12-13T02:54:56;-4.20;90.19
52656;SHT85;35474;51.032;6.998;2022-12-13T02:57:27;-4.17;90.09
52656;SHT85;35474;51.032;6.998;2022-12-13T03:00:02;-4.10;90.03
52656;SHT85;35474;51.032;6.998;2022-12-13T03:13:38;-4.29;89.67
52656;SHT85;35474;51.032;6.998;2022-12-13T03:16:20;-4.30;89.71
52656;SHT85;35474;51.032;6.998;2022-12-13T03:19:02;-4.32;89.77
52656;SHT85;35474;51.032;6.998;2022-12-13T03:21:36;-4.29;89.68
52656;SHT85;35474;51.032;6.998;2022-12-13T03:24:15;-4.26;89.55
52656;SHT85;35474;51.032;6.998;2022-12-13T03:26:43;-4.37;89.52
52656;SHT85;35474;51.032;6.998;2022-12-13T03:29:11;-4.38;89.61
52656;SHT85;35474;51.032;6.998;2022-12-13T03:31:37;-4.29;89.77
52656;SHT85;35474;51.032;6.998;2022-12-13T03:34:04;-4.36;89.60
52656;SHT85;35474;51.032;6.998;2022-12-13T03:36:31;-4.38;89.19
52656;SHT85;35474;51.032;6.998;2022-12-13T03:38:57;-4.53;89.03
52656;SHT85;35474;51.032;6.998;2022-12-13T03:41:24;-4.61;89.02
52656;SHT85;35474;51.032;6.998;2022-12-13T03:43:59;-4.53;89.30
52656;SHT85;35474;51.032;6.998;2022-12-13T03:46:29;-4.50;89.42
52656;SHT85;35474;51.032;6.998;2022-12-13T03:48:56;-4.63;89.47
52656;SHT85;35474;51.032;6.998;2022-12-13T03:51:22;-4.63;89.41
52656;SHT85;35474;51.032;6.998;2022-12-13T03:53:49;-4.60;89.22
52656;SHT85;35474;51.032;6.998;2022-12-13T03:56:15;-4.65;89.43
52656;SHT85;35474;51.032;6.998;2022-12-13T03:58:41;-4.46;89.61
52656;SHT85;35474;51.032;6.998;2022-12-13T04:01:09;-4.49;89.38
52656;SHT85;35474;51.032;6.998;2022-12-13T04:03:38;-4.54;89.27
52656;SHT85;35474;51.032;6.998;2022-12-13T04:06:06;-4.50;89.40
52656;SHT85;35474;51.032;6.998;2022-12-13T04:08:33;-4.47;89.25
52656;SHT85;35474;51.032;6.998;2022-12-13T04:11:01;-4.49;89.05
52656;SHT85;35474;51.032;6.998;2022-12-13T04:13:51;-4.53;88.88
52656;SHT85;35474;51.032;6.998;2022-12-13T04:16:18;-4.57;88.75
52656;SHT85;35474;51.032;6.998;2022-12-13T04:18:45;-4.49;88.69
52656;SHT85;35474;51.032;6.998;2022-12-13T04:21:11;-4.53;88.85
52656;SHT85;35474;51.032;6.998;2022-12-13T04:23:38;-4.71;88.96
52656;SHT85;35474;51.032;6.998;2022-12-13T04:26:04;-4.60;89.00
52656;SHT85;35474;51.032;6.998;2022-12-13T04:28:31;-4.68;88.87
52656;SHT85;35474;51.032;6.998;2022-12-13T04:30:58;-4.77;88.81
52656;SHT85;35474;51.032;6.998;2022-12-13T04:33:24;-4.77;89.17
52656;SHT85;35474;51.032;6.998;2022-12-13T04:35:51;-4.88;89.22
52656;SHT85;35474;51.032;6.998;2022-12-13T04:38:17;-4.88;89.60
52656;SHT85;35474;51.032;6.998;2022-12-13T04:40:44;-4.75;89.85
52656;SHT85;35474;51.032;6.998;2022-12-13T04:43:11;-4.75;89.57
52656;SHT85;35474;51.032;6.998;2022-12-13T04:45:37;-4.77;89.53
52656;SHT85;35474;51.032;6.998;2022-12-13T04:48:04;-4.73;89.55
52656;SHT85;35474;51.032;6.998;2022-12-13T04:50:31;-4.71;89.46
52656;SHT85;35474;51.032;6.998;2022-12-13T04:52:57;-4.70;89.43
52656;SHT85;35474;51.032;6.998;2022-12-13T04:55:24;-4.63;89.18
52656;SHT85;35474;51.032;6.998;2022-12-13T04:57:50;-4.67;89.01
52656;SHT85;35474;51.032;6.998;2022-12-13T05:00:17;-4.74;88.94
52656;SHT85;35474;51.032;6.998;2022-12-13T05:02:43;-4.85;88.79
52656;SHT85;35474;51.032;6.998;2022-12-13T05:05:10;-4.74;89.02
52656;SHT85;35474;51.032;6.998;2022-12-13T05:07:37;-4.77;88.99
52656;SHT85;35474;51.032;6.998;2022-12-13T05:10:08;-4.73;89.02
52656;SHT85;35474;51.032;6.998;2022-12-13T05:12:35;-4.74;89.03
52656;SHT85;35474;51.032;6.998;2022-12-13T05:15:02;-4.75;88.86
52656;SHT85;35474;51.032;6.998;2022-12-13T05:17:29;-4.85;88.98
52656;SHT85;35474;51.032;6.998;2022-12-13T05:19:55;-4.83;88.98
52656;SHT85;35474;51.032;6.998;2022-12-13T05:22:22;-4.75;88.96
52656;SHT85;35474;51.032;6.998;2022-12-13T05:24:48;-4.75;88.99
52656;SHT85;35474;51.032;6.998;2022-12-13T05:27:15;-4.83;88.95
52656;SHT85;35474;51.032;6.998;2022-12-13T05:29:55;-4.84;88.91
52656;SHT85;35474;51.032;6.998;2022-12-13T05:32:35;-4.84;88.87
52656;SHT85;35474;51.032;6.998;2022-12-13T05:35:13;-4.65;88.87
52656;SHT85;35474;51.032;6.998;2022-12-13T05:37:52;-4.70;88.69
52656;SHT85;35474;51.032;6.998;2022-12-13T05:40:21;-4.78;88.63
52656;SHT85;35474;51.032;6.998;2022-12-13T05:42:48;-4.75;88.76
52656;SHT85;35474;51.032;6.998;2022-12-13T05:45:15;-4.78;88.87
52656;SHT85;35474;51.032;6.998;2022-12-13T05:47:44;-4.84;88.70
52656;SHT85;35474;51.032;6.998;2022-12-13T05:50:11;-4.91;88.71
52656;SHT85;35474;51.032;6.998;2022-12-13T05:52:38;-4.80;88.77
52656;SHT85;35474;51.032;6.998;2022-12-13T05:55:05;-4.70;88.99
52656;SHT85;35474;51.032;6.998;2022-12-13T05:57:32;-4.83;88.72
52656;SHT85;35474;51.032;6.998;2022-12-13T05:59:59;-4.77;88.77
52656;SHT85;35474;51.032;6.998;2022-12-13T06:02:26;-4.75;88.66
52656;SHT85;35474;51.032;6.998;2022-12-13T06:04:53;-4.74;88.54
52656;SHT85;35474;51.032;6.998;2022-12-13T06:07:19;-4.75;88.34
52656;SHT85;35474;51.032;6.998;2022-12-13T06:09:46;-4.78;88.22
52656;SHT85;35474;51.032;6.998;2022-12-13T06:12:12;-4.73;88.26
52656;SHT85;35474;51.032;6.998;2022-12-13T06:14:57;-4.71;88.04
52656;SHT85;35474;51.032;6.998;2022-12-13T06:17:33;-4.71;88.00
52656;SHT85;35474;51.032;6.998;2022-12-13T06:20:02;-4.81;88.18
52656;SHT85;35474;51.032;6.998;2022-12-13T06:22:50;-4.74;87.98
52656;SHT85;35474;51.032;6.998;2022-12-13T06:25:17;-4.83;88.04
52656;SHT85;35474;51.032;6.998;2022-12-13T06:27:57;-4.71;88.22
52656;SHT85;35474;51.032;6.998;2022-12-13T06:30:26;-4.74;87.89
52656;SHT85;35474;51.032;6.998;2022-12-13T06:32:53;-4.78;87.64
52656;SHT85;35474;51.032;6.998;2022-12-13T06:35:20;-4.75;87.64
52656;SHT85;35474;51.032;6.998;2022-12-13T06:37:54;-4.77;87.58
52656;SHT85;35474;51.032;6.998;2022-12-13T06:40:26;-4.77;87.64
52656;SHT85;35474;51.032;6.998;2022-12-13T06:42:53;-4.85;87.46
52656;SHT85;35474;51.032;6.998;2022-12-13T06:45:20;-4.84;87.44
52656;SHT85;35474;51.032;6.998;2022-12-13T06:47:46;-4.83;87.55
52656;SHT85;35474;51.032;6.998;2022-12-13T06:50:13;-4.88;87.49
52656;SHT85;35474;51.032;6.998;2022-12-13T06:52:40;-4.84;87.50
52656;SHT85;35474;51.032;6.998;2022-12-13T06:55:06;-4.88;87.44
52656;SHT85;35474;51.032;6.998;2022-12-13T06:57:33;-4.94;87.52
52656;SHT85;35474;51.032;6.998;2022-12-13T07:00:00;-4.88;87.69
52656;SHT85;35474;51.032;6.998;2022-12-13T07:02:28;-4.87;87.41
52656;SHT85;35474;51.032;6.998;2022-12-13T07:04:55;-4.99;87.39
52656;SHT85;35474;51.032;6.998;2022-12-13T07:07:24;-5.05;87.48
52656;SHT85;35474;51.032;6.998;2022-12-13T07:09:52;-5.01;87.77
52656;SHT85;35474;51.032;6.998;2022-12-13T07:12:19;-5.11;87.81
52656;SHT85;35474;51.032;6.998;2022-12-13T07:14:46;-4.87;87.83
52656;SHT85;35474;51.032;6.998;2022-12-13T07:17:12;-5.01;87.69
52656;SHT85;35474;51.032;6.998;2022-12-13T07:19:59;-5.02;87.82
52656;SHT85;35474;51.032;6.998;2022-12-13T07:22:26;-4.87;87.69
52656;SHT85;35474;51.032;6.998;2022-12-13T07:24:53;-5.06;87.28
52656;SHT85;35474;51.032;6.998;2022-12-13T07:27:19;-5.02;87.53
52656;SHT85;35474;51.032;6.998;2022-12-13T07:32:34;-5.08;87.61
52656;SHT85;35474;51.032;6.998;2022-12-13T07:35:01;-5.13;87.48
52656;SHT85;35474;51.032;6.998;2022-12-13T07:37:27;-5.12;87.72
52656;SHT85;35474;51.032;6.998;2022-12-13T07:39:55;-5.09;87.75
52656;SHT85;35474;51.032;6.998;2022-12-13T07:42:29;-5.05;87.73
52656;SHT85;35474;51.032;6.998;2022-12-13T07:44:56;-4.94;87.61
52656;SHT85;35474;51.032;6.998;2022-12-13T07:47:28;-4.75;87.44
52656;SHT85;35474;51.032;6.998;2022-12-13T07:49:56;-4.77;87.11
52656;SHT85;35474;51.032;6.998;2022-12-13T07:52:23;-4.57;86.92
52656;SHT85;35474;51.032;6.998;2022-12-13T07:54:49;-4.34;86.48
52656;SHT85;35474;51.032;6.998;2022-12-13T07:57:16;-4.10;85.70
52656;SHT85;35474;51.032;6.998;2022-12-13T07:59:42;-3.94;84.57
52656;SHT85;35474;51.032;6.998;2022-12-13T08:02:10;-3.70;83.97
52656;SHT85;35474;51.032;6.998;2022-12-13T08:04:38;-3.46;83.17
52656;SHT85;35474;51.032;6.998;2022-12-13T08:07:08;-3.24;82.36
52656;SHT85;35474;51.032;6.998;2022-12-13T08:09:36;-3.05;81.55
52656;SHT85;35474;51.032;6.998;2022-12-13T08:12:02;-3.05;80.94
52656;SHT85;35474;51.032;6.998;2022-12-13T08:14:32;-2.88;80.30
52656;SHT85;35474;51.032;6.998;2022-12-13T08:16:59;-2.74;79.93
52656;SHT85;35474;51.032;6.998;2022-12-13T08:19:25;-2.55;79.36
52656;SHT85;35474;51.032;6.998;2022-12-13T08:21:52;-2.36;78.54
52656;SHT85;35474;51.032;6.998;2022-12-13T08:24:25;-2.37;77.74
52656;SHT85;35474;51.032;6.998;2022-12-13T08:26:53;-2.32;77.58
52656;SHT85;35474;51.032;6.998;2022-12-13T08:29:20;-2.26;77.09
52656;SHT85;35474;51.032;6.998;2022-12-13T08:31:59;-1.96;76.21
52656;SHT85;35474;51.032;6.998;2022-12-13T08:34:30;-1.89;75.26
52656;SHT85;35474;51.032;6.998;2022-12-13T08:36:57;-1.93;75.59
52656;SHT85;35474;51.032;6.998;2022-12-13T08:39:28;-1.58;74.55
52656;SHT85;35474;51.032;6.998;2022-12-13T08:41:59;-1.26;74.77
52656;SHT85;35474;51.032;6.998;2022-12-13T08:44:42;-0.85;72.63
52656;SHT85;35474;51.032;6.998;2022-12-13T08:47:09;-0.70;71.16
52656;SHT85;35474;51.032;6.998;2022-12-13T08:49:36;-0.59;71.91
52656;SHT85;35474;51.032;6.998;2022-12-13T08:52:02;-0.38;70.67
52656;SHT85;35474;51.032;6.998;2022-12-13T08:54:31;-0.31;70.43
52656;SHT85;35474;51.032;6.998;2022-12-13T08:56:58;-0.41;69.38
52656;SHT85;35474;51.032;6.998;2022-12-13T08:59:28;-0.18;70.22
52656;SHT85;35474;51.032;6.998;2022-12-13T09:01:54;0.00;69.02
52656;SHT85;35474;51.032;6.998;2022-12-13T09:04:28;0.15;68.85
52656;SHT85;35474;51.032;6.998;2022-12-13T09:06:56;-0.17;69.32
52656;SHT85;35474;51.032;6.998;2022-12-13T09:09:27;0.37;68.48
52656;SHT85;35474;51.032;6.998;2022-12-13T09:11:54;0.69;67.86
52656;SHT85;35474;51.032;6.998;2022-12-13T09:14:25;0.92;67.42
52656;SHT85;35474;51.032;6.998;2022-12-13T09:16:59;0.51;66.52
52656;SHT85;35474;51.032;6.998;2022-12-13T09:19:28;0.55;67.71
52656;SHT85;35474;51.032;6.998;2022-12-13T09:22:02;0.17;68.04
52656;SHT85;35474;51.032;6.998;2022-12-13T09:24:29;0.45;69.53
52656;SHT85;35474;51.032;6.998;2022-12-13T09:27:02;0.64;67.47
52656;SHT85;35474;51.032;6.998;2022-12-13T09:29:35;0.91;68.46
52656;SHT85;35474;51.032;6.998;2022-12-13T09:32:03;1.48;66.06
52656;SHT85;35474;51.032;6.998;2022-12-13T09:34:30;1.39;66.23
52656;SHT85;35474;51.032;6.998;2022-12-13T09:37:00;0.69;66.38
52656;SHT85;35474;51.032;6.998;2022-12-13T09:39:27;0.65;67.64
52656;SHT85;35474;51.032;6.998;2022-12-13T09:41:57;0.66;68.60
52656;SHT85;35474;51.032;6.998;2022-12-13T09:44:30;0.69;68.14
52656;SHT85;35474;51.032;6.998;2022-12-13T09:47:14;0.79;67.66
52656;SHT85;35474;51.032;6.998;2022-12-13T09:49:50;0.47;68.38
52656;SHT85;35474;51.032;6.998;2022-12-13T09:52:20;0.58;68.23
52656;SHT85;35474;51.032;6.998;2022-12-13T09:54:53;0.78;67.56
52656;SHT85;35474;51.032;6.998;2022-12-13T09:57:24;0.58;67.95
52656;SHT85;35474;51.032;6.998;2022-12-13T09:59:59;0.24;69.54
52656;SHT85;35474;51.032;6.998;2022-12-13T10:02:56;0.78;68.49
52656;SHT85;35474;51.032;6.998;2022-12-13T10:05:28;1.91;65.35
52656;SHT85;35474;51.032;6.998;2022-12-13T10:08:13;2.20;63.35
52656;SHT85;35474;51.032;6.998;2022-12-13T10:10:42;1.72;64.67
52656;SHT85;35474;51.032;6.998;2022-12-13T10:16:08;2.13;63.76
52656;SHT85;35474;51.032;6.998;2022-12-13T10:18:49;1.89;64.44
52656;SHT85;35474;51.032;6.998;2022-12-13T10:21:29;1.97;65.46
52656;SHT85;35474;51.032;6.998;2022-12-13T10:24:06;2.34;64.32
52656;SHT85;35474;51.032;6.998;2022-12-13T10:26:54;3.05;62.03
52656;SHT85;35474;51.032;6.998;2022-12-13T10:29:23;2.92;62.15
52656;SHT85;35474;51.032;6.998;2022-12-13T10:31:51;3.33;60.54
52656;SHT85;35474;51.032;6.998;2022-12-13T10:34:22;3.20;62.18
52656;SHT85;35474;51.032;6.998;2022-12-13T10:36:52;3.01;60.09
52656;SHT85;35474;51.032;6.998;2022-12-13T10:39:38;3.04;61.02
52656;SHT85;35474;51.032;6.998;2022-12-13T10:42:16;2.25;62.73
52656;SHT85;35474;51.032;6.998;2022-12-13T10:45:12;2.25;62.61
52656;SHT85;35474;51.032;6.998;2022-12-13T10:47:41;2.54;60.65
52656;SHT85;35474;51.032;6.998;2022-12-13T10:50:20;2.30;63.25
52656;SHT85;35474;51.032;6.998;2022-12-13T10:52:50;2.77;61.86
52656;SHT85;35474;51.032;6.998;2022-12-13T10:57:56;2.56;60.78
52656;SHT85;35474;51.032;6.998;2022-12-13T11:00:36;2.16;61.25
52656;SHT85;35474;51.032;6.998;2022-12-13T11:06:11;3.20;59.57
52656;SHT85;35474;51.032;6.998;2022-12-13T11:08:39;3.48;58.10
52656;SHT85;35474;51.032;6.998;2022-12-13T11:11:07;3.63;57.14
52656;SHT85;35474;51.032;6.998;2022-12-13T11:13:36;3.76;56.82
52656;SHT85;35474;51.032;6.998;2022-12-13T11:18:52;3.40;57.73
52656;SHT85;35474;51.032;6.998;2022-12-13T11:21:25;3.19;58.42
52656;SHT85;35474;51.032;6.998;2022-12-13T11:23:55;2.56;59.89
52656;SHT85;35474;51.032;6.998;2022-12-13T11:26:27;3.18;58.88
52656;SHT85;35474;51.032;6.998;2022-12-13T11:34:58;4.45;55.53
52656;SHT85;35474;51.032;6.998;2022-12-13T11:40:24;3.69;55.08
52656;SHT85;35474;51.032;6.998;2022-12-13T11:45:45;3.53;55.88
52656;SHT85;35474;51.032;6.998;2022-12-13T11:51:21;3.33;57.05
52656;SHT85;35474;51.032;6.998;2022-12-13T11:54:23;2.81;57.34
52656;SHT85;35474;51.032;6.998;2022-12-13T11:56:56;2.33;59.29
52656;SHT85;35474;51.032;6.998;2022-12-13T11:59:31;3.30;58.65
52656;SHT85;35474;51.032;6.998;2022-12-13T12:04:50;3.22;59.56
52656;SHT85;35474;51.032;6.998;2022-12-13T12:07:33;3.20;57.81
52656;SHT85;35474;51.032;6.998;2022-12-13T12:13:34;3.33;57.46
52656;SHT85;35474;51.032;6.998;2022-12-13T12:19:00;3.48;55.90
52656;SHT85;35474;51.032;6.998;2022-12-13T12:21:40;2.91;57.69
52656;SHT85;35474;51.032;6.998;2022-12-13T12:35:50;3.29;54.79
52656;SHT85;35474;51.032;6.998;2022-12-13T12:44:46;2.40;57.58
52656;SHT85;35474;51.032;6.998;2022-12-13T12:47:30;2.40;57.36
52656;SHT85;35474;51.032;6.998;2022-12-13T12:53:31;2.49;59.02
52656;SHT85;35474;51.032;6.998;2022-12-13T12:59:00;3.48;55.47
52656;SHT85;35474;51.032;6.998;2022-12-13T13:04:38;4.17;54.47
52656;SHT85;35474;51.032;6.998;2022-12-13T13:07:37;3.90;54.02
52656;SHT85;35474;51.032;6.998;2022-12-13T13:10:05;3.04;55.40
52656;SHT85;35474;51.032;6.998;2022-12-13T13:12:50;3.19;56.12
52656;SHT85;35474;51.032;6.998;2022-12-13T13:18:07;2.80;56.37
52656;SHT85;35474;51.032;6.998;2022-12-13T13:26:27;2.40;57.44
52656;SHT85;35474;51.032;6.998;2022-12-13T13:29:19;2.47;57.64
52656;SHT85;35474;51.032;6.998;2022-12-13T13:31:57;2.37;58.14
52656;SHT85;35474;51.032;6.998;2022-12-13T13:34:40;2.28;58.77
52656;SHT85;35474;51.032;6.998;2022-12-13T13:42:24;2.25;59.35
52656;SHT85;35474;51.032;6.998;2022-12-13T13:44:53;2.06;59.08
52656;SHT85;35474;51.032;6.998;2022-12-13T13:52:30;1.79;59.67
52656;SHT85;35474;51.032;6.998;2022-12-13T13:55:47;1.74;60.21
52656;SHT85;35474;51.032;6.998;2022-12-13T13:58:14;1.79;60.43
52656;SHT85;35474;51.032;6.998;2022-12-13T14:09:40;1.62;60.92
52656;SHT85;35474;51.032;6.998;2022-12-13T14:12:36;1.57;61.43
52656;SHT85;35474;51.032;6.998;2022-12-13T14:24:21;1.47;62.71
52656;SHT85;35474;51.032;6.998;2022-12-13T14:29:33;1.52;62.75
52656;SHT85;35474;51.032;6.998;2022-12-13T14:32:20;1.55;63.07
52656;SHT85;35474;51.032;6.998;2022-12-13T14:34:52;1.41;63.39
52656;SHT85;35474;51.032;6.998;2022-12-13T14:37:27;1.26;63.65
52656;SHT85;35474;51.032;6.998;2022-12-13T14:39:58;1.24;63.57
52656;SHT85;35474;51.032;6.998;2022-12-13T14:42:27;1.22;63.76
52656;SHT85;35474;51.032;6.998;2022-12-13T14:45:11;1.06;64.00
52656;SHT85;35474;51.032;6.998;2022-12-13T14:47:39;1.02;64.51
52656;SHT85;35474;51.032;6.998;2022-12-13T14:50:07;1.04;64.77
52656;SHT85;35474;51.032;6.998;2022-12-13T14:52:37;1.09;64.60
52656;SHT85;35474;51.032;6.998;2022-12-13T14:55:05;0.95;64.74
52656;SHT85;35474;51.032;6.998;2022-12-13T14:57:50;0.91;65.21
52656;SHT85;35474;51.032;6.998;2022-12-13T15:00:40;0.79;65.45
52656;SHT85;35474;51.032;6.998;2022-12-13T15:03:06;0.82;66.02
52656;SHT85;35474;51.032;6.998;2022-12-13T15:05:45;0.85;65.64
52656;SHT85;35474;51.032;6.998;2022-12-13T15:08:16;0.86;65.79
52656;SHT85;35474;51.032;6.998;2022-12-13T15:10:51;0.79;66.03
52656;SHT85;35474;51.032;6.998;2022-12-13T15:15:56;0.75;66.24
52656;SHT85;35474;51.032;6.998;2022-12-13T15:18:36;0.66;66.60
52656;SHT85;35474;51.032;6.998;2022-12-13T15:21:12;0.60;66.88
52656;SHT85;35474;51.032;6.998;2022-12-13T15:23:46;0.58;67.14
52656;SHT85;35474;51.032;6.998;2022-12-13T15:26:21;0.54;67.43
52656;SHT85;35474;51.032;6.998;2022-12-13T15:28:56;0.44;67.72
52656;SHT85;35474;51.032;6.998;2022-12-13T15:31:25;0.48;67.73
52656;SHT85;35474;51.032;6.998;2022-12-13T15:33:52;0.38;67.65
52656;SHT85;35474;51.032;6.998;2022-12-13T15:36:27;0.33;68.36
52656;SHT85;35474;51.032;6.998;2022-12-13T15:41:27;0.34;68.26
52656;SHT85;35474;51.032;6.998;2022-12-13T15:43:59;0.28;68.64
52656;SHT85;35474;51.032;6.998;2022-12-13T15:46:32;0.27;68.50
52656;SHT85;35474;51.032;6.998;2022-12-13T15:49:05;0.24;68.66
52656;SHT85;35474;51.032;6.998;2022-12-13T15:51:57;0.23;68.87
52656;SHT85;35474;51.032;6.998;2022-12-13T15:54:27;0.27;69.22
52656;SHT85;35474;51.032;6.998;2022-12-13T15:57:02;0.23;69.40
52656;SHT85;35474;51.032;6.998;2022-12-13T15:59:45;0.14;69.50
52656;SHT85;35474;51.032;6.998;2022-12-13T16:02:26;0.23;69.76
52656;SHT85;35474;51.032;6.998;2022-12-13T16:05:03;0.20;69.70
52656;SHT85;35474;51.032;6.998;2022-12-13T16:07:32;0.13;69.48
52656;SHT85;35474;51.032;6.998;2022-12-13T16:10:06;0.17;69.73
52656;SHT85;35474;51.032;6.998;2022-12-13T16:12:45;0.04;69.74
52656;SHT85;35474;51.032;6.998;2022-12-13T16:15:16;0.04;70.03
52656;SHT85;35474;51.032;6.998;2022-12-13T16:18:03;-0.01;70.13
52656;SHT85;35474;51.032;6.998;2022-12-13T16:20:54;-0.10;70.54
52656;SHT85;35474;51.032;6.998;2022-12-13T16:23:22;-0.01;70.85
52656;SHT85;35474;51.032;6.998;2022-12-13T16:25:53;-0.06;70.93
52656;SHT85;35474;51.032;6.998;2022-12-13T16:28:19;-0.06;70.69
52656;SHT85;35474;51.032;6.998;2022-12-13T16:33:21;-0.08;70.75
52656;SHT85;35474;51.032;6.998;2022-12-13T16:35:54;-0.18;70.90
52656;SHT85;35474;51.032;6.998;2022-12-13T16:38:21;-0.19;70.96
52656;SHT85;35474;51.032;6.998;2022-12-13T16:40:52;-0.19;71.05
52656;SHT85;35474;51.032;6.998;2022-12-13T16:43:21;-0.24;71.24
52656;SHT85;35474;51.032;6.998;2022-12-13T16:45:58;-0.21;71.14
52656;SHT85;35474;51.032;6.998;2022-12-13T16:48:48;-0.21;70.75
52656;SHT85;35474;51.032;6.998;2022-12-13T16:51:15;-0.24;71.16
52656;SHT85;35474;51.032;6.998;2022-12-13T16:53:41;-0.29;71.30
52656;SHT85;35474;51.032;6.998;2022-12-13T16:56:08;-0.21;71.00
52656;SHT85;35474;51.032;6.998;2022-12-13T16:58:36;-0.28;71.39
52656;SHT85;35474;51.032;6.998;2022-12-13T17:01:07;-0.34;71.39
52656;SHT85;35474;51.032;6.998;2022-12-13T17:03:37;-0.28;71.67
52656;SHT85;35474;51.032;6.998;2022-12-13T17:06:04;-0.27;71.19
52656;SHT85;35474;51.032;6.998;2022-12-13T17:08:33;-0.32;71.47
52656;SHT85;35474;51.032;6.998;2022-12-13T17:10:59;-0.29;71.01
52656;SHT85;35474;51.032;6.998;2022-12-13T17:13:26;-0.24;70.52
52656;SHT85;35474;51.032;6.998;2022-12-13T17:15:54;-0.25;70.22
52656;SHT85;35474;51.032;6.998;2022-12-13T17:18:25;-0.31;70.07
52656;SHT85;35474;51.032;6.998;2022-12-13T17:20:51;-0.32;69.90
52656;SHT85;35474;51.032;6.998;2022-12-13T17:23:24;-0.39;69.81
52656;SHT85;35474;51.032;6.998;2022-12-13T17:25:52;-0.41;69.54
52656;SHT85;35474;51.032;6.998;2022-12-13T17:28:23;-0.46;69.83
52656;SHT85;35474;51.032;6.998;2022-12-13T17:30:50;-0.42;69.48
52656;SHT85;35474;51.032;6.998;2022-12-13T17:33:20;-0.49;69.21
52656;SHT85;35474;51.032;6.998;2022-12-13T17:35:46;-0.44;68.91
52656;SHT85;35474;51.032;6.998;2022-12-13T17:38:13;-0.44;68.62
52656;SHT85;35474;51.032;6.998;2022-12-13T17:40:39;-0.48;68.80
52656;SHT85;35474;51.032;6.998;2022-12-13T17:43:05;-0.56;68.58
52656;SHT85;35474;51.032;6.998;2022-12-13T17:45:32;-0.56;68.42
52656;SHT85;35474;51.032;6.998;2022-12-13T17:47:58;-0.54;68.10
52656;SHT85;35474;51.032;6.998;2022-12-13T17:50:26;-0.45;67.50
52656;SHT85;35474;51.032;6.998;2022-12-13T17:52:53;-0.45;67.24
52656;SHT85;35474;51.032;6.998;2022-12-13T17:55:19;-0.42;67.26
52656;SHT85;35474;51.032;6.998;2022-12-13T17:57:46;-0.45;66.98
52656;SHT85;35474;51.032;6.998;2022-12-13T18:00:12;-0.45;66.98
52656;SHT85;35474;51.032;6.998;2022-12-13T18:02:40;-0.42;67.04
52656;SHT85;35474;51.032;6.998;2022-12-13T18:05:20;-0.46;66.85
52656;SHT85;35474;51.032;6.998;2022-12-13T18:07:50;-0.41;66.55
52656;SHT85;35474;51.032;6.998;2022-12-13T18:10:17;-0.44;66.62
52656;SHT85;35474;51.032;6.998;2022-12-13T18:12:53;-0.45;66.63
52656;SHT85;35474;51.032;6.998;2022-12-13T18:15:19;-0.46;66.61
52656;SHT85;35474;51.032;6.998;2022-12-13T18:17:46;-0.44;66.39